createdAt,value
2023-03-23T15:58:10.690Z,65.04
2023-03-23T15:59:10.657Z,65.04
2023-03-23T16:00:10.666Z,65.14
2023-03-23T16:01:10.669Z,64.94
2023-03-23T16:02:10.686Z,64.84
2023-03-23T16:03:10.658Z,65.04
2023-03-23T16:04:10.631Z,65.04
2023-03-23T16:05:10.599Z,64.84
2023-03-23T16:06:10.600Z,64.84
2023-03-23T16:07:10.592Z,64.73
2023-03-23T16:08:10.579Z,64.94
2023-03-23T16:09:10.571Z,64.84
2023-03-23T16:10:10.567Z,65.04
2023-03-23T16:11:10.541Z,65.04
2023-03-23T16:12:10.549Z,64.94
2023-03-23T16:13:10.524Z,65.14
2023-03-23T16:14:10.649Z,65.04
2023-03-23T16:15:10.541Z,65.14
2023-03-23T16:16:10.523Z,65.34
2023-03-23T16:17:10.491Z,65.34
2023-03-23T16:18:10.518Z,65.45
2023-03-23T16:19:10.485Z,65.45
2023-03-23T16:20:10.464Z,65.24
2023-03-23T16:21:10.439Z,65.34
2023-03-23T16:22:10.446Z,65.34
2023-03-23T16:23:10.417Z,65.65
2023-03-23T16:24:10.434Z,65.55
2023-03-23T16:25:10.403Z,65.65
2023-03-23T16:26:11.359Z,65.85
2023-03-23T16:27:10.420Z,65.95
2023-03-23T16:28:10.391Z,65.85
2023-03-23T16:29:18.829Z,66.05
2023-03-23T16:30:11.363Z,66.26
2023-03-23T16:31:10.398Z,66.46
2023-03-23T16:32:10.345Z,66.66
2023-03-23T16:33:10.331Z,66.86
2023-03-23T16:34:10.312Z,66.97
2023-03-23T16:35:10.340Z,67.07
2023-03-23T16:36:10.318Z,67.27
2023-03-23T16:37:10.282Z,67.38
2023-03-23T16:38:10.295Z,67.68
2023-03-23T16:39:10.250Z,67.68
2023-03-23T16:40:10.251Z,67.88
2023-03-23T16:41:10.228Z,67.88
2023-03-23T16:42:10.587Z,67.98
2023-03-23T16:43:10.252Z,68.19
2023-03-23T16:44:10.202Z,68.29
2023-03-23T16:45:10.190Z,68.49
2023-03-23T16:46:10.276Z,68.62
2023-03-23T16:47:10.176Z,68.52
2023-03-23T16:48:10.192Z,68.73
2023-03-23T16:49:10.144Z,68.93
2023-03-23T16:50:10.146Z,69.03
2023-03-23T16:51:10.122Z,69.23
2023-03-23T16:52:10.136Z,69.34
2023-03-23T16:53:10.103Z,69.54
2023-03-23T16:54:10.130Z,69.74
2023-03-23T16:55:10.114Z,69.84
2023-03-23T16:56:10.086Z,70.15
2023-03-23T16:57:10.120Z,70.35
2023-03-23T16:58:16.797Z,70.55
2023-03-23T16:59:11.038Z,70.86
2023-03-23T17:00:10.038Z,71.16
2023-03-23T17:01:10.033Z,71.26
2023-03-23T17:02:10.030Z,71.47
2023-03-23T17:03:10.139Z,71.67
2023-03-23T17:04:10.009Z,71.97
2023-03-23T17:05:09.978Z,72.21
2023-03-23T17:06:09.971Z,72.41
2023-03-23T17:07:09.974Z,72.52
2023-03-23T17:08:09.962Z,72.82
2023-03-23T17:09:09.935Z,73.02
2023-03-23T17:10:09.932Z,73.22
2023-03-23T17:11:09.918Z,73.33
2023-03-23T17:12:09.929Z,73.53
2023-03-23T17:13:09.904Z,73.53
2023-03-23T17:14:10.026Z,73.74
2023-03-23T17:15:09.873Z,74.04
2023-03-23T17:16:09.903Z,74.14
2023-03-23T17:17:09.871Z,74.24
2023-03-23T17:18:09.863Z,74.34
2023-03-23T17:19:09.854Z,74.48
2023-03-23T17:20:09.863Z,74.58
2023-03-23T17:21:09.814Z,74.58
2023-03-23T17:22:09.812Z,74.68
2023-03-23T17:23:09.811Z,74.79
2023-03-23T17:24:09.789Z,74.88
2023-03-23T17:25:09.773Z,74.79
2023-03-23T17:26:09.826Z,74.79
2023-03-23T17:27:09.783Z,74.88
2023-03-23T17:28:09.769Z,74.88
2023-03-23T17:29:09.807Z,74.99
2023-03-23T17:30:10.798Z,75.09
2023-03-23T17:31:09.787Z,74.99
2023-03-23T17:32:09.762Z,74.99
2023-03-23T17:33:09.809Z,75.09
2023-03-23T17:34:09.744Z,75.19
2023-03-23T17:35:09.721Z,75.19
2023-03-23T17:36:09.727Z,74.99
2023-03-23T17:37:09.657Z,74.99
2023-03-23T17:38:09.665Z,75.09
2023-03-23T17:39:09.633Z,75.09
2023-03-23T17:40:09.629Z,75.09
2023-03-23T17:41:09.665Z,75.19
2023-03-23T17:42:09.664Z,75.23
2023-03-23T17:43:09.649Z,75.33
2023-03-23T17:44:09.634Z,75.33
2023-03-23T17:45:09.875Z,75.33
2023-03-23T17:46:09.617Z,75.43
2023-03-23T17:47:09.599Z,75.43
2023-03-23T17:48:09.689Z,75.53
2023-03-23T17:49:09.595Z,75.53
2023-03-23T17:50:11.681Z,75.63
2023-03-23T17:51:09.557Z,75.63
2023-03-23T17:52:09.552Z,75.63
2023-03-23T17:53:09.552Z,75.73
2023-03-23T17:54:09.552Z,75.73
2023-03-23T17:55:09.528Z,75.73
2023-03-23T17:56:09.554Z,75.73
2023-03-23T17:57:09.550Z,75.73
2023-03-23T17:58:09.510Z,75.73
2023-03-23T17:59:09.489Z,75.73
2023-03-23T18:00:09.483Z,75.73
2023-03-23T18:01:09.529Z,75.73
2023-03-23T18:02:09.508Z,75.73
2023-03-23T18:03:09.495Z,75.84
2023-03-23T18:04:09.423Z,75.94
2023-03-23T18:05:09.494Z,75.94
2023-03-23T18:06:09.402Z,75.94
2023-03-23T18:07:09.398Z,75.94
2023-03-23T18:08:09.416Z,76.04
2023-03-23T18:09:09.388Z,76.04
2023-03-23T18:10:09.599Z,76.14
2023-03-23T18:11:09.367Z,76.18
2023-03-23T18:12:09.470Z,76.28
2023-03-23T18:13:09.347Z,76.28
2023-03-23T18:14:09.317Z,76.38
2023-03-23T18:15:09.316Z,76.48
2023-03-23T18:16:09.329Z,76.59
2023-03-23T18:17:09.304Z,76.59
2023-03-23T18:18:09.292Z,76.68
2023-03-23T18:19:09.282Z,76.68
2023-03-23T18:20:09.277Z,76.68
2023-03-23T18:21:09.253Z,76.79
2023-03-23T18:22:09.243Z,76.89
2023-03-23T18:23:09.585Z,76.99
2023-03-23T18:24:09.215Z,76.99
2023-03-23T18:25:09.238Z,76.99
2023-03-23T18:26:09.200Z,76.99
2023-03-23T18:27:09.190Z,77.09
2023-03-23T18:28:09.191Z,76.99
2023-03-23T18:29:09.175Z,77.09
2023-03-23T18:30:09.154Z,77.09
2023-03-23T18:31:09.151Z,77.09
2023-03-23T18:32:09.262Z,77.09
2023-03-23T18:33:09.326Z,77.23
2023-03-23T18:34:09.124Z,77.23
2023-03-23T18:35:09.137Z,77.23
2023-03-23T18:36:09.099Z,77.23
2023-03-23T18:37:09.096Z,77.23
2023-03-23T18:38:09.088Z,77.33
2023-03-23T18:39:09.068Z,77.33
2023-03-23T18:40:09.060Z,77.33
2023-03-23T18:41:09.058Z,77.33
2023-03-23T18:42:09.033Z,77.44
2023-03-23T18:43:09.038Z,77.44
2023-03-23T18:44:09.017Z,77.44
2023-03-23T18:45:09.021Z,77.44
2023-03-23T18:46:09.131Z,77.44
2023-03-23T18:47:08.987Z,77.23
2023-03-23T18:48:09.043Z,77.33
2023-03-23T18:49:08.975Z,77.33
2023-03-23T18:50:08.957Z,77.33
2023-03-23T18:51:08.959Z,77.33
2023-03-23T18:52:08.953Z,77.23
2023-03-23T18:53:08.946Z,77.33
2023-03-23T18:54:08.913Z,77.23
2023-03-23T18:55:08.908Z,77.23
2023-03-23T18:56:08.901Z,77.13
2023-03-23T18:57:08.931Z,77.03
2023-03-23T18:58:08.896Z,76.82
2023-03-23T18:59:08.874Z,76.62
2023-03-23T19:00:08.870Z,76.56
2023-03-23T19:01:08.906Z,76.56
2023-03-23T19:02:08.848Z,76.45
2023-03-23T19:03:08.902Z,76.45
2023-03-23T19:04:08.843Z,76.35
2023-03-23T19:05:08.814Z,76.04
2023-03-23T19:06:08.808Z,75.84
2023-03-23T19:07:08.790Z,75.54
2023-03-23T19:08:08.785Z,75.64
2023-03-23T19:09:08.775Z,75.54
2023-03-23T19:10:08.757Z,75.43
2023-03-23T19:11:08.752Z,75.33
2023-03-23T19:12:08.754Z,75.33
2023-03-23T19:13:08.741Z,75.23
2023-03-23T19:14:08.716Z,75.02
2023-03-23T19:15:08.715Z,75.13
2023-03-23T19:16:08.726Z,75.23
2023-03-23T19:17:08.687Z,75.13
2023-03-23T19:18:08.738Z,75.33
2023-03-23T19:19:08.678Z,75.54
2023-03-23T19:20:13.555Z,75.78
2023-03-23T19:21:13.963Z,75.98
2023-03-23T19:22:09.631Z,75.98
2023-03-23T19:23:08.639Z,76.08
2023-03-23T19:24:08.617Z,76.18
2023-03-23T19:25:08.612Z,76.08
2023-03-23T19:26:08.589Z,76.18
2023-03-23T19:27:08.642Z,76.39
2023-03-23T19:30:08.559Z,76.69
2023-03-23T19:31:08.563Z,76.79
2023-03-23T19:32:08.525Z,76.79
2023-03-23T19:33:08.614Z,76.90
2023-03-23T19:34:08.509Z,77.00
2023-03-23T19:35:08.509Z,77.03
2023-03-23T19:36:13.062Z,77.03
2023-03-23T19:37:11.457Z,77.03
2023-03-23T19:38:08.481Z,77.14
2023-03-23T19:39:08.473Z,77.24
2023-03-23T19:40:24.271Z,77.24
2023-03-23T19:41:09.699Z,77.34
2023-03-23T19:42:08.437Z,77.44
2023-03-23T19:43:08.457Z,77.44
2023-03-23T19:44:08.412Z,77.64
2023-03-23T19:45:08.397Z,77.75
2023-03-23T19:46:08.720Z,77.85
2023-03-23T19:47:08.402Z,77.95
2023-03-23T19:48:10.105Z,78.05
2023-03-23T19:49:08.365Z,78.16
2023-03-23T19:50:08.336Z,78.19
2023-03-23T19:51:08.341Z,78.30
2023-03-23T19:52:12.410Z,78.39
2023-03-23T19:53:08.313Z,78.50
2023-03-23T19:54:08.915Z,78.60
2023-03-23T19:55:08.304Z,78.60
2023-03-23T19:56:08.324Z,78.70
2023-03-23T19:57:08.319Z,78.80
2023-03-23T19:58:08.263Z,78.80
2023-03-23T19:59:08.275Z,78.91
2023-03-23T20:00:08.293Z,79.00
2023-03-23T20:01:08.255Z,79.00
2023-03-23T20:02:08.603Z,79.11
2023-03-23T20:03:08.903Z,79.21
2023-03-23T20:04:08.264Z,79.32
2023-03-23T20:05:08.720Z,79.32
2023-03-23T20:06:08.173Z,79.41
2023-03-23T20:07:08.182Z,79.52
2023-03-23T20:08:08.323Z,79.55
2023-03-23T20:09:08.612Z,79.75
2023-03-23T20:10:08.134Z,79.75
2023-03-23T20:11:08.126Z,79.86
2023-03-23T20:12:08.128Z,79.96
2023-03-23T20:13:08.103Z,79.96
2023-03-23T20:14:08.101Z,79.96
2023-03-23T20:15:08.091Z,80.07
2023-03-23T20:16:08.091Z,80.27
2023-03-23T20:17:08.066Z,80.27
2023-03-23T20:18:08.073Z,80.37
2023-03-23T20:19:08.060Z,80.37
2023-03-23T20:20:10.312Z,80.47
2023-03-23T20:21:08.042Z,80.57
2023-03-23T20:22:08.010Z,80.57
2023-03-23T20:23:08.044Z,80.57
2023-03-23T20:24:08.006Z,80.68
2023-03-23T20:25:08.165Z,80.78
2023-03-23T20:26:07.962Z,80.88
2023-03-23T20:27:08.218Z,80.98
2023-03-23T20:28:07.965Z,81.09
2023-03-23T20:29:08.155Z,81.09
2023-03-23T20:30:07.926Z,81.29
2023-03-23T20:31:19.477Z,81.29
2023-03-23T20:32:08.896Z,81.29
2023-03-23T20:33:07.926Z,81.39
2023-03-23T20:34:07.898Z,81.39
2023-03-23T20:35:07.876Z,81.49
2023-03-23T20:36:07.925Z,81.49
2023-03-23T20:37:07.868Z,81.59
2023-03-23T20:38:07.867Z,81.80
2023-03-23T20:39:07.854Z,81.80
2023-03-23T20:40:07.818Z,81.90
2023-03-23T20:41:07.809Z,82.00
2023-03-23T20:42:07.795Z,82.10
2023-03-23T20:43:10.300Z,82.00
2023-03-23T20:44:07.793Z,82.00
2023-03-23T20:45:07.771Z,82.10
2023-03-23T20:46:07.757Z,82.10
2023-03-23T20:47:07.750Z,82.10
2023-03-23T20:48:07.739Z,82.10
2023-03-23T20:49:07.743Z,82.21
2023-03-23T20:50:07.720Z,82.41
2023-03-23T20:51:07.711Z,82.41
2023-03-23T20:52:07.701Z,82.51
2023-03-23T20:53:07.697Z,82.51
2023-03-23T20:54:07.724Z,82.51
2023-03-23T20:55:07.671Z,82.71
2023-03-23T20:56:07.668Z,82.82
2023-03-23T20:57:07.678Z,82.92
2023-03-23T20:58:07.637Z,82.92
2023-03-23T20:59:07.682Z,83.02
2023-03-23T21:00:07.625Z,83.02
2023-03-23T21:01:07.763Z,83.12
2023-03-23T21:02:07.618Z,83.12
2023-03-23T21:03:07.592Z,83.12
2023-03-23T21:04:07.585Z,83.23
2023-03-23T21:05:07.578Z,83.33
2023-03-23T21:06:07.571Z,83.33
2023-03-23T21:07:07.546Z,83.33
2023-03-23T21:08:07.533Z,83.33
2023-03-23T21:09:07.556Z,83.33
2023-03-23T21:10:07.519Z,83.33
2023-03-23T21:11:07.528Z,83.33
2023-03-23T21:12:07.490Z,83.33
2023-03-23T21:13:07.490Z,83.23
2023-03-23T21:14:07.484Z,83.33
2023-03-23T21:15:07.464Z,83.23
2023-03-23T21:16:07.461Z,83.33
2023-03-23T21:17:07.442Z,83.23
2023-03-23T21:18:07.478Z,83.33
2023-03-23T21:19:07.439Z,83.33
2023-03-23T21:20:07.412Z,83.33
2023-03-23T21:21:09.264Z,83.33
2023-03-23T21:22:07.388Z,83.33
2023-03-23T21:23:07.378Z,83.33
2023-03-23T21:24:07.380Z,83.33
2023-03-23T21:25:07.367Z,83.33
2023-03-23T21:26:07.340Z,83.43
2023-03-23T21:27:07.341Z,83.43
2023-03-23T21:28:07.360Z,83.53
2023-03-23T21:29:07.336Z,83.53
2023-03-23T21:30:07.307Z,83.53
2023-03-23T21:31:07.328Z,83.53
2023-03-23T21:32:08.898Z,83.53
2023-03-23T21:33:08.495Z,83.53
2023-03-23T21:34:07.289Z,83.53
2023-03-23T21:35:07.262Z,83.53
2023-03-23T21:36:07.239Z,83.53
2023-03-23T21:37:07.238Z,83.53
2023-03-23T21:38:07.211Z,83.53
2023-03-23T21:39:07.226Z,83.53
2023-03-23T21:40:07.205Z,83.53
2023-03-23T21:41:07.197Z,83.53
2023-03-23T21:42:07.195Z,83.53
2023-03-23T21:43:07.194Z,83.53
2023-03-23T21:44:07.172Z,83.53
2023-03-23T21:45:07.155Z,83.53
2023-03-23T21:46:07.139Z,83.53
2023-03-23T21:47:07.125Z,83.53
2023-03-23T21:48:07.142Z,83.53
2023-03-23T21:49:07.120Z,83.53
2023-03-23T21:50:07.105Z,83.53
2023-03-23T21:51:07.100Z,83.63
2023-03-23T21:52:07.083Z,83.63
2023-03-23T21:53:07.076Z,83.63
2023-03-23T21:54:07.081Z,83.63
2023-03-23T21:55:07.049Z,83.73
2023-03-23T21:56:07.047Z,83.73
2023-03-23T21:57:07.076Z,83.73
2023-03-23T21:58:07.025Z,83.73
2023-03-23T21:59:07.028Z,83.73
2023-03-23T22:00:07.001Z,83.73
2023-03-23T22:01:07.040Z,83.73
2023-03-23T22:02:07.063Z,83.73
2023-03-23T22:03:07.007Z,83.78
2023-03-23T22:04:06.950Z,83.73
2023-03-23T22:05:06.958Z,83.78
2023-03-23T22:06:06.947Z,83.67
2023-03-23T22:07:06.940Z,83.67
2023-03-23T22:08:06.911Z,83.67
2023-03-23T22:09:06.928Z,83.67
2023-03-23T22:10:06.898Z,83.57
2023-03-23T22:11:06.884Z,83.57
2023-03-23T22:12:06.869Z,83.57
2023-03-23T22:13:06.858Z,83.57
2023-03-23T22:14:06.846Z,83.57
2023-03-23T22:15:06.876Z,83.57
2023-03-23T22:16:06.888Z,83.47
2023-03-23T22:17:06.828Z,83.47
2023-03-23T22:18:06.830Z,83.37
2023-03-23T22:19:06.827Z,83.37
2023-03-23T22:20:06.808Z,83.37
2023-03-23T22:21:06.768Z,83.37
2023-03-23T22:22:06.773Z,83.37
2023-03-23T22:23:06.746Z,83.37
2023-03-23T22:24:06.746Z,83.37
2023-03-23T22:25:06.765Z,83.26
2023-03-23T22:26:06.727Z,83.26
2023-03-23T22:27:06.716Z,83.26
2023-03-23T22:28:06.700Z,83.26
2023-03-23T22:29:06.698Z,83.26
2023-03-23T22:30:06.733Z,83.26
2023-03-23T22:31:06.681Z,83.16
2023-03-23T22:32:06.670Z,83.16
2023-03-23T22:33:06.703Z,83.16
2023-03-23T22:34:06.649Z,83.16
2023-03-23T22:35:06.647Z,83.26
2023-03-23T22:36:06.826Z,83.16
2023-03-23T22:37:06.614Z,83.16
2023-03-23T22:38:06.618Z,83.16
2023-03-23T22:39:06.599Z,83.16
2023-03-23T22:40:06.597Z,83.06
2023-03-23T22:41:06.579Z,83.06
2023-03-23T22:42:06.564Z,83.16
2023-03-23T22:43:06.554Z,83.16
2023-03-23T22:44:06.547Z,83.06
2023-03-23T22:45:06.544Z,83.06
2023-03-23T22:46:06.581Z,83.02
2023-03-23T22:47:06.513Z,82.96
2023-03-23T22:48:06.558Z,82.92
2023-03-23T22:49:06.484Z,82.92
2023-03-23T22:50:06.504Z,82.82
2023-03-23T22:51:06.469Z,82.71
2023-03-23T22:52:06.487Z,82.61
2023-03-23T22:53:06.453Z,82.61
2023-03-23T22:54:06.440Z,82.51
2023-03-23T22:55:06.449Z,82.51
2023-03-23T22:56:06.437Z,82.41
2023-03-23T22:57:06.436Z,82.41
2023-03-23T22:58:06.406Z,82.31
2023-03-23T22:59:06.385Z,82.21
2023-03-23T23:00:06.392Z,82.21
2023-03-23T23:01:06.399Z,82.21
2023-03-23T23:02:06.351Z,82.21
2023-03-23T23:03:06.356Z,82.21
2023-03-23T23:04:06.508Z,82.21
2023-03-23T23:05:06.344Z,82.21
2023-03-23T23:06:06.316Z,82.31
2023-03-23T23:07:12.770Z,82.31
2023-03-23T23:08:07.294Z,82.31
2023-03-23T23:09:06.288Z,82.21
2023-03-23T23:10:06.303Z,82.31
2023-03-23T23:11:06.262Z,82.31
2023-03-23T23:12:06.255Z,82.31
2023-03-23T23:13:06.238Z,82.31
2023-03-23T23:14:06.241Z,82.31
2023-03-23T23:15:06.236Z,82.27
2023-03-23T23:16:06.217Z,82.27
2023-03-23T23:17:06.354Z,82.27
2023-03-23T23:18:06.214Z,82.37
2023-03-23T23:19:06.183Z,82.37
2023-03-23T23:20:06.196Z,82.37
2023-03-23T23:21:06.156Z,82.47
2023-03-23T23:22:18.009Z,82.47
2023-03-23T23:23:07.154Z,82.47
2023-03-23T23:24:06.129Z,82.47
2023-03-23T23:25:06.140Z,82.47
2023-03-23T23:26:06.119Z,82.57
2023-03-23T23:27:06.094Z,82.57
2023-03-23T23:28:06.096Z,82.57
2023-03-23T23:29:06.118Z,82.57
2023-03-23T23:30:06.093Z,82.68
2023-03-23T23:31:06.070Z,82.68
2023-03-23T23:32:06.050Z,82.78
2023-03-23T23:33:06.087Z,82.88
2023-03-23T23:34:06.041Z,83.09
2023-03-23T23:35:06.024Z,83.09
2023-03-23T23:36:06.030Z,83.04
2023-03-23T23:37:05.992Z,83.15
2023-03-23T23:38:05.995Z,83.25
2023-03-23T23:39:05.973Z,83.35
2023-03-23T23:40:05.990Z,83.45
2023-03-23T23:41:05.956Z,83.45
2023-03-23T23:42:05.987Z,83.45
2023-03-23T23:43:05.930Z,83.56
2023-03-23T23:44:05.929Z,83.56
2023-03-23T23:45:05.934Z,83.76
2023-03-23T23:46:05.932Z,83.76
2023-03-23T23:47:05.895Z,83.86
2023-03-23T23:48:05.993Z,83.96
2023-03-23T23:49:05.868Z,84.06
2023-03-23T23:50:05.876Z,84.06
2023-03-23T23:51:05.859Z,84.17
2023-03-23T23:52:05.845Z,84.27
2023-03-23T23:53:05.854Z,84.37
2023-03-23T23:54:05.824Z,84.47
2023-03-23T23:55:05.820Z,84.58
2023-03-23T23:56:05.811Z,84.67
2023-03-23T23:57:05.803Z,84.78
2023-03-23T23:58:05.778Z,84.88
2023-03-23T23:59:05.768Z,85.08
